createdAt,value
2018-12-16T00:00:46.741Z,99377.25
2018-12-16T00:03:19.788Z,99370.58
2018-12-16T00:05:52.814Z,99371.59
2018-12-16T00:08:23.970Z,99361.42
2018-12-16T00:10:55.048Z,99360.63
2018-12-16T00:13:26.160Z,99364.27
2018-12-16T00:16:03.893Z,99364.72
2018-12-16T00:18:34.865Z,99367.91
2018-12-16T00:21:05.941Z,99366.48
2018-12-16T00:23:37.023Z,99366.77
2018-12-16T00:26:08.109Z,99368.81
2018-12-16T00:28:39.209Z,99361.16
2018-12-16T00:31:10.340Z,99363.23
2018-12-16T00:33:41.333Z,99356.77
2018-12-16T00:36:12.411Z,99352.63
2018-12-16T00:38:43.701Z,99358.16
2018-12-16T00:41:14.659Z,99354.23
2018-12-16T00:43:45.751Z,99344.53
2018-12-16T00:46:16.857Z,99339.89
2018-12-16T00:48:47.975Z,99337.35
2018-12-16T00:51:19.064Z,99328.77
2018-12-16T00:53:51.267Z,99324.83
2018-12-16T00:56:22.350Z,99326.98
2018-12-16T00:58:53.475Z,99339.28
2018-12-16T01:02:49.030Z,99340.31
2018-12-16T01:05:20.187Z,99358.73
2018-12-16T01:07:51.274Z,99357.41
2018-12-16T01:10:22.371Z,99363.58
2018-12-16T01:12:53.448Z,99369.54
2018-12-16T01:15:24.558Z,99376.80
2018-12-16T01:17:55.520Z,99384.33
2018-12-16T01:20:26.624Z,99382.67
2018-12-16T01:22:57.697Z,99385.81
2018-12-16T01:25:28.792Z,99394.92
2018-12-16T01:27:59.756Z,99393.01
2018-12-16T01:30:30.851Z,99394.16
2018-12-16T01:33:01.928Z,99396.84
2018-12-16T01:35:33.023Z,99395.00
2018-12-16T01:38:04.105Z,99393.23
2018-12-16T01:40:35.205Z,99385.23
2018-12-16T01:43:06.337Z,99372.89
2018-12-16T01:45:37.432Z,99367.73
2018-12-16T01:48:08.603Z,99358.83
2018-12-16T01:50:39.692Z,99351.55
2018-12-16T01:53:10.767Z,99343.11
2018-12-16T01:55:41.885Z,99328.84
2018-12-16T01:58:12.985Z,99324.64
2018-12-16T02:00:44.159Z,99317.20
2018-12-16T02:03:15.200Z,99317.75
2018-12-16T02:05:46.369Z,99309.25
2018-12-16T02:08:17.338Z,99300.26
2018-12-16T02:10:48.444Z,99293.69
2018-12-16T02:13:19.530Z,99293.39
2018-12-16T02:15:50.740Z,99278.27
2018-12-16T02:18:21.805Z,99269.81
2018-12-16T02:20:53.049Z,99263.11
2018-12-16T02:23:24.119Z,99250.69
2018-12-16T02:25:55.206Z,99241.33
2018-12-16T02:28:26.300Z,99236.47
2018-12-16T02:30:57.398Z,99228.23
2018-12-16T02:33:28.481Z,99224.11
2018-12-16T02:35:59.573Z,99221.13
2018-12-16T02:38:30.657Z,99221.92
2018-12-16T02:41:01.794Z,99215.17
2018-12-16T02:43:32.872Z,99215.53
2018-12-16T02:46:04.256Z,99216.94
2018-12-16T02:48:35.487Z,99216.89
2018-12-16T02:51:06.698Z,99212.97
2018-12-16T02:53:37.773Z,99211.39
2018-12-16T02:56:08.876Z,99205.46
2018-12-16T02:58:39.968Z,99197.67
2018-12-16T03:01:11.131Z,99199.16
2018-12-16T03:03:42.266Z,99190.48
2018-12-16T03:06:14.857Z,99189.31
2018-12-16T03:08:46.003Z,99186.63
2018-12-16T03:11:17.102Z,99182.80
2018-12-16T03:13:48.192Z,99171.80
2018-12-16T03:16:19.371Z,99163.52
2018-12-16T03:18:50.574Z,99161.55
2018-12-16T03:21:21.664Z,99156.16
2018-12-16T03:23:52.776Z,99148.69
2018-12-16T03:26:23.985Z,99139.40
2018-12-16T03:28:55.065Z,99138.15
2018-12-16T03:31:26.167Z,99122.53
2018-12-16T03:33:57.229Z,99120.84
2018-12-16T03:36:28.336Z,99114.31
2018-12-16T03:38:59.433Z,99107.88
2018-12-16T03:41:30.828Z,99102.92
2018-12-16T03:44:01.969Z,99099.67
2018-12-16T03:46:33.488Z,99103.86
2018-12-16T03:49:07.434Z,99104.25
2018-12-16T03:51:38.568Z,99087.98
2018-12-16T03:54:09.708Z,99074.02
2018-12-16T03:56:40.822Z,99085.56
2018-12-16T03:59:18.711Z,99084.86
2018-12-16T04:01:58.128Z,99069.61
2018-12-16T04:04:29.244Z,99063.69
2018-12-16T04:07:00.374Z,99076.70
2018-12-16T04:09:31.463Z,99069.41
2018-12-16T04:12:02.598Z,99066.35
2018-12-16T04:14:33.685Z,99063.94
2018-12-16T04:17:04.815Z,99043.98
2018-12-16T04:19:36.002Z,99042.97
2018-12-16T04:22:07.104Z,99048.27
2018-12-16T04:24:38.188Z,99049.37
2018-12-16T04:27:09.298Z,99058.44
2018-12-16T04:29:40.388Z,99053.62
2018-12-16T04:32:11.503Z,99059.05
2018-12-16T04:34:42.577Z,99064.28
2018-12-16T04:37:13.745Z,99058.69
2018-12-16T04:39:45.765Z,99054.95
2018-12-16T04:42:16.868Z,99050.05
2018-12-16T04:44:47.948Z,99034.42
2018-12-16T04:47:19.051Z,99032.61
2018-12-16T04:49:50.134Z,99035.97
2018-12-16T04:52:21.230Z,99042.92
2018-12-16T04:54:52.388Z,99046.77
2018-12-16T04:57:23.497Z,99042.45
2018-12-16T04:59:54.594Z,99037.25
2018-12-16T05:02:25.722Z,99035.27
2018-12-16T05:04:56.700Z,99044.44
2018-12-16T05:07:28.202Z,99043.70
2018-12-16T05:10:14.888Z,99036.91
2018-12-16T05:12:46.057Z,99024.36
2018-12-16T05:15:17.140Z,99024.47
2018-12-16T05:17:48.268Z,99018.06
2018-12-16T05:20:19.439Z,99016.63
2018-12-16T05:22:50.561Z,99013.53
2018-12-16T05:25:21.661Z,98999.45
2018-12-16T05:27:52.677Z,98992.33
2018-12-16T05:30:23.747Z,98992.89
2018-12-16T05:32:54.860Z,99002.46
2018-12-16T05:35:25.947Z,98992.37
2018-12-16T05:37:57.061Z,98992.70
2018-12-16T05:40:28.140Z,98992.55
2018-12-16T05:42:59.240Z,98994.95
2018-12-16T05:45:30.323Z,98997.48
2018-12-16T05:48:08.076Z,98999.42
2018-12-16T05:50:39.158Z,99003.61
2018-12-16T05:53:10.283Z,99010.00
2018-12-16T05:55:41.376Z,99008.97
2018-12-16T05:58:12.463Z,99010.77
2018-12-16T06:00:43.555Z,99011.41
2018-12-16T06:03:14.669Z,99025.14
2018-12-16T06:05:45.791Z,99019.86
2018-12-16T06:08:16.983Z,99014.66
2018-12-16T06:10:48.063Z,99010.50
2018-12-16T06:13:19.152Z,99004.16
2018-12-16T06:15:50.274Z,98998.80
2018-12-16T06:18:21.458Z,98990.19
2018-12-16T06:20:52.535Z,98976.78
2018-12-16T06:23:23.865Z,98980.08
2018-12-16T06:25:54.836Z,98986.16
2018-12-16T06:28:25.977Z,98985.86
2018-12-16T06:30:57.157Z,98980.36
2018-12-16T06:33:28.263Z,98988.95
2018-12-16T06:35:59.349Z,98988.85
2018-12-16T06:38:30.456Z,98989.64
2018-12-16T06:41:07.888Z,99002.52
2018-12-16T06:43:38.997Z,99004.62
2018-12-16T06:46:10.065Z,99002.61
2018-12-16T06:48:41.048Z,98990.07
2018-12-16T06:51:12.128Z,98983.42
2018-12-16T06:53:43.257Z,98978.35
2018-12-16T06:56:14.336Z,98989.97
2018-12-16T06:58:45.484Z,99002.25
2018-12-16T07:01:16.549Z,98998.02
2018-12-16T07:03:47.557Z,98999.53
2018-12-16T07:06:18.636Z,99009.09
2018-12-16T07:08:49.744Z,99003.78
2018-12-16T07:11:20.829Z,99004.08
2018-12-16T07:13:52.055Z,98999.17
2018-12-16T07:16:23.168Z,99006.77
2018-12-16T07:18:54.281Z,99003.86
2018-12-16T07:21:25.492Z,99003.94
2018-12-16T07:23:56.736Z,99001.98
2018-12-16T07:26:27.803Z,98994.05
2018-12-16T07:28:58.923Z,98998.83
2018-12-16T07:31:30.100Z,99006.67
2018-12-16T07:34:01.193Z,99008.56
2018-12-16T07:36:32.320Z,99008.65
2018-12-16T07:39:03.461Z,99006.91
2018-12-16T07:41:36.722Z,99011.19
2018-12-16T07:44:07.867Z,99014.59
2018-12-16T07:46:38.939Z,99016.13
2018-12-16T07:49:10.164Z,99011.66
2018-12-16T07:51:41.235Z,99017.02
2018-12-16T07:54:16.040Z,99032.95
2018-12-16T07:56:45.456Z,99044.12
2018-12-16T07:59:16.586Z,99045.13
2018-12-16T08:01:47.709Z,99055.00
2018-12-16T08:04:18.852Z,99056.06
2018-12-16T08:06:50.890Z,99062.21
2018-12-16T08:09:22.043Z,99058.80
2018-12-16T08:11:53.940Z,99057.84
2018-12-16T08:14:25.359Z,99063.56
2018-12-16T08:16:56.444Z,99071.42
2018-12-16T08:19:27.552Z,99066.47
2018-12-16T08:21:58.893Z,99064.20
2018-12-16T08:24:30.039Z,99064.04
2018-12-16T08:27:01.180Z,99060.05
2018-12-16T08:29:32.460Z,99055.31
2018-12-16T08:32:03.546Z,99046.69
2018-12-16T08:34:34.675Z,99049.81
2018-12-16T08:37:05.788Z,99052.30
2018-12-16T08:39:36.896Z,99056.47
2018-12-16T08:42:07.880Z,99065.08
2018-12-16T08:44:38.980Z,99066.35
2018-12-16T08:47:10.155Z,99063.95
2018-12-16T08:49:41.280Z,99058.80
2018-12-16T08:52:12.248Z,99064.59
2018-12-16T08:54:43.340Z,99074.59
2018-12-16T08:57:14.416Z,99076.72
2018-12-16T08:59:45.517Z,99080.05
2018-12-16T09:02:16.624Z,99076.35
2018-12-16T09:04:47.820Z,99080.28
2018-12-16T09:07:19.095Z,99086.92
2018-12-16T09:09:50.318Z,99090.55
2018-12-16T09:12:21.516Z,99092.64
2018-12-16T09:14:53.146Z,99100.11
2018-12-16T09:17:25.875Z,99092.89
2018-12-16T09:19:57.110Z,99086.88
2018-12-16T09:22:28.180Z,99086.19
2018-12-16T09:24:59.303Z,99090.30
2018-12-16T09:27:30.425Z,99098.77
2018-12-16T09:30:01.538Z,99104.50
2018-12-16T09:32:33.776Z,99107.05
2018-12-16T09:35:04.987Z,99103.76
2018-12-16T09:37:37.709Z,99109.67
2018-12-16T09:40:09.136Z,99109.42
2018-12-16T09:42:40.219Z,99110.54
2018-12-16T09:45:11.321Z,99109.14
2018-12-16T09:47:42.637Z,99107.30
2018-12-16T09:50:13.750Z,99113.93
2018-12-16T09:52:44.817Z,99104.88
2018-12-16T09:55:15.972Z,99109.23
2018-12-16T09:57:47.119Z,99116.81
2018-12-16T10:00:18.149Z,99115.13
2018-12-16T10:02:49.253Z,99110.70
2018-12-16T10:05:20.613Z,99110.80
2018-12-16T10:07:51.974Z,99110.12
2018-12-16T10:10:23.192Z,99111.83
2018-12-16T10:12:54.174Z,99109.60
2018-12-16T10:15:25.344Z,99106.30
2018-12-16T10:17:56.532Z,99106.69
2018-12-16T10:20:27.667Z,99110.50
2018-12-16T10:22:59.230Z,99107.88
2018-12-16T10:25:30.455Z,99102.82
2018-12-16T10:28:01.583Z,99092.11
2018-12-16T10:30:32.835Z,99097.16
2018-12-16T10:33:03.964Z,99096.46
2018-12-16T10:35:35.084Z,99091.16
2018-12-16T10:38:06.144Z,99093.64
2018-12-16T10:40:37.255Z,99080.79
2018-12-16T10:43:08.360Z,99080.55
2018-12-16T10:45:39.487Z,99077.86
2018-12-16T10:48:10.585Z,99074.09
2018-12-16T10:50:41.857Z,99070.94
2018-12-16T10:53:12.998Z,99077.77
2018-12-16T10:55:44.168Z,99078.63
2018-12-16T10:58:15.256Z,99081.36
2018-12-16T11:00:51.702Z,99078.42
2018-12-16T11:03:22.832Z,99078.20
2018-12-16T11:05:53.835Z,99077.66
2018-12-16T11:08:25.145Z,99078.74
2018-12-16T11:10:56.291Z,99069.98
2018-12-16T11:13:27.380Z,99071.68
2018-12-16T11:15:58.534Z,99072.77
2018-12-16T11:18:29.563Z,99073.54
2018-12-16T11:21:00.742Z,99078.14
2018-12-16T11:23:31.823Z,99078.70
2018-12-16T11:26:03.002Z,99076.10
2018-12-16T11:28:33.969Z,99087.41
2018-12-16T11:31:05.094Z,99087.79
2018-12-16T11:33:36.179Z,99087.72
2018-12-16T11:36:07.292Z,99086.70
2018-12-16T11:38:38.387Z,99077.30
2018-12-16T11:41:09.544Z,99070.30
2018-12-16T11:43:40.648Z,99065.85
2018-12-16T11:46:11.756Z,99070.27
2018-12-16T11:48:42.853Z,99068.38
2018-12-16T11:51:14.965Z,99058.58
2018-12-16T11:53:46.171Z,99052.66
2018-12-16T11:56:17.298Z,99056.14
2018-12-16T11:58:48.454Z,99051.23
2018-12-16T12:01:19.558Z,99054.43
2018-12-16T12:03:50.644Z,99061.12
2018-12-16T12:06:21.791Z,99068.39
2018-12-16T12:08:52.973Z,99070.55
2018-12-16T12:11:24.209Z,99069.02
2018-12-16T12:13:55.292Z,99066.41
2018-12-16T12:16:26.544Z,99076.37
2018-12-16T12:19:01.822Z,99079.13
2018-12-16T12:21:33.096Z,99078.13
2018-12-16T12:24:04.167Z,99071.87
2018-12-16T12:26:35.427Z,99076.05
2018-12-16T12:29:06.508Z,99083.70
2018-12-16T12:31:37.631Z,99078.97
2018-12-16T12:34:08.745Z,99076.53
2018-12-16T12:36:39.773Z,99078.27
2018-12-16T12:39:10.748Z,99076.78
2018-12-16T12:41:42.928Z,99070.84
2018-12-16T12:44:14.026Z,99065.72
2018-12-16T12:46:45.147Z,99065.42
2018-12-16T12:49:16.250Z,99066.27
2018-12-16T12:51:47.357Z,99082.17
2018-12-16T12:54:18.470Z,99086.59
2018-12-16T12:56:49.617Z,99088.23
2018-12-16T12:59:20.801Z,99092.90
2018-12-16T13:01:51.907Z,99093.84
2018-12-16T13:04:23.001Z,99096.52
2018-12-16T13:06:54.402Z,99099.52
2018-12-16T13:09:25.559Z,99101.82
2018-12-16T13:11:57.129Z,99101.28
2018-12-16T13:14:28.313Z,99103.89
2018-12-16T13:21:55.977Z,99095.58
2018-12-16T13:24:27.157Z,99101.11
2018-12-16T13:26:58.347Z,99096.23
2018-12-16T13:29:29.481Z,99089.72
2018-12-16T13:32:00.560Z,99085.48
2018-12-16T13:34:31.736Z,99091.63
2018-12-16T13:37:02.817Z,99090.67
2018-12-16T13:39:33.936Z,99095.33
2018-12-16T13:42:05.041Z,99084.30
2018-12-16T13:44:36.148Z,99081.37
2018-12-16T13:47:07.299Z,99089.34
2018-12-16T13:49:38.452Z,99098.45
2018-12-16T13:52:09.575Z,99090.12
2018-12-16T13:54:40.673Z,99083.08
2018-12-16T13:57:11.808Z,99081.86
2018-12-16T13:59:42.960Z,99085.78
2018-12-16T14:02:14.112Z,99091.97
2018-12-16T14:04:45.211Z,99092.20
2018-12-16T14:07:16.991Z,99084.77
2018-12-16T14:09:48.092Z,99090.84
2018-12-16T14:12:19.151Z,99088.16
2018-12-16T14:14:50.245Z,99096.48
2018-12-16T14:17:21.359Z,99093.28
2018-12-16T14:19:52.528Z,99091.42
2018-12-16T14:22:23.662Z,99085.31
2018-12-16T14:24:54.896Z,99091.56
2018-12-16T14:27:25.964Z,99093.22
2018-12-16T14:29:57.105Z,99094.00
2018-12-16T14:32:28.208Z,99100.11
2018-12-16T14:34:59.320Z,99103.08
2018-12-16T14:37:30.500Z,99105.61
2018-12-16T14:40:01.605Z,99108.94
2018-12-16T14:42:33.776Z,99117.72
2018-12-16T14:45:06.101Z,99120.48
2018-12-16T14:47:37.252Z,99126.63
2018-12-16T14:50:11.002Z,99122.39
2018-12-16T14:52:48.903Z,99124.77
2018-12-16T14:55:20.027Z,99124.43
2018-12-16T14:57:51.107Z,99126.09
2018-12-16T15:00:22.231Z,99123.82
2018-12-16T15:02:53.384Z,99126.48
2018-12-16T15:05:24.521Z,99129.34
2018-12-16T15:07:55.676Z,99119.92
2018-12-16T15:10:26.810Z,99128.02
2018-12-16T15:12:57.959Z,99122.45
2018-12-16T15:15:29.076Z,99119.55
2018-12-16T15:18:00.196Z,99122.08
2018-12-16T15:21:34.932Z,99128.41
2018-12-16T15:24:06.033Z,99131.76
2018-12-16T15:26:37.183Z,99130.42
2018-12-16T15:29:08.271Z,99126.09
2018-12-16T15:31:39.381Z,99124.66
2018-12-16T15:34:17.076Z,99130.67
2018-12-16T15:36:48.327Z,99128.62
2018-12-16T15:39:19.477Z,99126.41
2018-12-16T15:41:50.618Z,99126.02
2018-12-16T15:44:21.731Z,99128.76
2018-12-16T15:46:53.458Z,99139.36
2018-12-16T15:49:24.599Z,99139.77
2018-12-16T15:51:55.710Z,99138.25
2018-12-16T15:54:26.740Z,99142.84
2018-12-16T15:56:57.825Z,99142.59
2018-12-16T15:59:28.981Z,99141.10
2018-12-16T16:02:00.087Z,99147.83
2018-12-16T16:04:31.178Z,99146.25
2018-12-16T16:07:02.360Z,99152.25
2018-12-16T16:09:33.461Z,99155.14
2018-12-16T16:12:04.581Z,99156.50
2018-12-16T16:14:35.719Z,99155.23
2018-12-16T16:17:06.763Z,99156.45
2018-12-16T16:19:37.986Z,99159.82
2018-12-16T16:22:09.096Z,99155.43
2018-12-16T16:24:40.184Z,99157.57
2018-12-16T16:27:11.285Z,99155.97
2018-12-16T16:29:42.540Z,99157.31
2018-12-16T16:32:13.635Z,99166.39
2018-12-16T16:34:44.624Z,99168.70
2018-12-16T16:37:15.732Z,99169.56
2018-12-16T16:39:46.907Z,99169.48
2018-12-16T16:42:18.064Z,99176.92
2018-12-16T16:44:49.231Z,99181.24
2018-12-16T16:47:20.508Z,99189.95
2018-12-16T16:49:51.595Z,99185.44
2018-12-16T16:52:22.737Z,99178.34
2018-12-16T16:54:53.807Z,99184.73
2018-12-16T16:57:24.912Z,99184.75
2018-12-16T16:59:56.032Z,99179.59
2018-12-16T17:02:27.145Z,99183.25
2018-12-16T17:04:58.225Z,99186.47
2018-12-16T17:07:29.397Z,99183.55
2018-12-16T17:10:00.497Z,99189.08
2018-12-16T17:12:31.612Z,99187.35
2018-12-16T17:15:03.096Z,99179.75
2018-12-16T17:17:34.316Z,99185.20
2018-12-16T17:20:05.895Z,99187.66
2018-12-16T17:22:36.952Z,99190.06
2018-12-16T17:25:10.199Z,99198.09
2018-12-16T17:27:41.860Z,99204.50
2018-12-16T17:30:12.877Z,99204.67
2018-12-16T17:32:44.143Z,99208.92
2018-12-16T17:35:15.235Z,99213.21
2018-12-16T17:37:46.513Z,99211.00
2018-12-16T17:40:17.700Z,99213.73
2018-12-16T17:42:48.876Z,99222.29
2018-12-16T17:45:20.044Z,99225.06
2018-12-16T17:47:53.103Z,99228.61
2018-12-16T17:50:24.296Z,99227.19
2018-12-16T17:52:56.332Z,99220.23
2018-12-16T17:55:27.490Z,99216.52
2018-12-16T17:57:58.700Z,99214.31
2018-12-16T18:00:29.784Z,99219.52
2018-12-16T18:03:01.260Z,99222.22
2018-12-16T18:05:32.491Z,99222.70
2018-12-16T18:08:03.904Z,99227.14
2018-12-16T18:10:35.056Z,99228.05
2018-12-16T18:13:06.284Z,99227.19
2018-12-16T18:15:37.463Z,99226.73
2018-12-16T18:18:08.629Z,99227.07
2018-12-16T18:20:39.588Z,99226.27
2018-12-16T18:23:10.854Z,99230.30
2018-12-16T18:25:41.858Z,99228.14
2018-12-16T18:28:12.900Z,99229.72
2018-12-16T18:30:43.992Z,99229.25
2018-12-16T18:33:15.283Z,99229.89
2018-12-16T18:35:46.358Z,99226.02
2018-12-16T18:38:17.484Z,99227.50
2018-12-16T18:40:48.484Z,99235.19
2018-12-16T18:43:19.648Z,99238.98
2018-12-16T18:45:50.723Z,99239.20
2018-12-16T18:48:21.895Z,99243.88
2018-12-16T18:50:53.100Z,99247.27
2018-12-16T18:53:24.212Z,99248.47
2018-12-16T18:55:55.371Z,99250.59
2018-12-16T18:58:33.144Z,99250.20
2018-12-16T19:01:04.291Z,99248.22
2018-12-16T19:03:35.497Z,99244.35
2018-12-16T19:06:06.588Z,99247.02
2018-12-16T19:08:37.787Z,99247.02
2018-12-16T19:11:09.964Z,99245.28
2018-12-16T19:13:41.082Z,99242.47
2018-12-16T19:16:12.195Z,99246.16
2018-12-16T19:18:43.728Z,99244.53
2018-12-16T19:21:15.996Z,99242.63
2018-12-16T19:23:47.156Z,99246.63
2018-12-16T19:26:18.313Z,99248.92
2018-12-16T19:28:49.390Z,99256.69
2018-12-16T19:31:20.438Z,99249.11
2018-12-16T19:33:51.661Z,99252.28
2018-12-16T19:36:22.744Z,99248.71
2018-12-16T19:38:54.131Z,99250.66
2018-12-16T19:41:25.205Z,99257.55
2018-12-16T19:43:56.340Z,99258.59
2018-12-16T19:46:27.473Z,99259.32
2018-12-16T19:48:58.725Z,99264.03
2018-12-16T19:51:29.740Z,99263.05
2018-12-16T19:54:00.890Z,99262.27
2018-12-16T19:56:32.039Z,99264.59
2018-12-16T19:59:03.268Z,99268.64
2018-12-16T20:01:34.356Z,99268.27
2018-12-16T20:04:10.661Z,99268.59
2018-12-16T20:06:45.016Z,99268.08
2018-12-16T20:09:16.244Z,99267.84
2018-12-16T20:11:47.395Z,99266.42
2018-12-16T20:14:18.508Z,99275.98
2018-12-16T20:16:49.682Z,99274.89
2018-12-16T20:19:21.348Z,99282.48
2018-12-16T20:21:52.443Z,99280.02
2018-12-16T20:24:23.587Z,99288.09
2018-12-16T20:26:54.719Z,99289.69
2018-12-16T20:29:25.827Z,99288.72
2018-12-16T20:31:56.945Z,99284.48
2018-12-16T20:34:28.208Z,99287.88
2018-12-16T20:36:59.424Z,99290.69
2018-12-16T20:39:30.713Z,99293.13
2018-12-16T20:42:01.659Z,99290.52
2018-12-16T20:44:32.823Z,99289.63
2018-12-16T20:47:03.813Z,99290.78
2018-12-16T20:49:35.000Z,99289.27
2018-12-16T20:52:06.021Z,99293.52
2018-12-16T20:54:37.127Z,99295.66
2018-12-16T20:57:08.308Z,99293.43
2018-12-16T20:59:42.697Z,99290.04
2018-12-16T21:02:13.778Z,99287.37
2018-12-16T21:04:44.812Z,99292.09
2018-12-16T21:07:15.913Z,99289.72
2018-12-16T21:09:47.092Z,99290.04
2018-12-16T21:13:27.675Z,99288.48
2018-12-16T21:16:04.216Z,99295.73
2018-12-16T21:18:35.857Z,99289.67
2018-12-16T21:21:07.014Z,99294.46
2018-12-16T21:23:38.163Z,99294.41
2018-12-16T21:26:09.385Z,99295.17
2018-12-16T21:28:40.606Z,99292.20
2018-12-16T21:31:11.754Z,99296.61
2018-12-16T21:33:42.911Z,99295.84
2018-12-16T21:36:14.016Z,99296.05
2018-12-16T21:38:45.100Z,99299.86
2018-12-16T21:41:16.436Z,99298.62
2018-12-16T21:43:48.663Z,99298.13
2018-12-16T21:46:19.721Z,99299.39
2018-12-16T21:48:50.824Z,99298.78
2018-12-16T21:51:21.962Z,99294.52
2018-12-16T21:53:53.465Z,99295.31
2018-12-16T21:56:24.587Z,99303.13
2018-12-16T21:58:55.768Z,99302.08
2018-12-16T22:01:27.007Z,99305.91
2018-12-16T22:03:58.105Z,99310.19
2018-12-16T22:06:29.307Z,99312.30
2018-12-16T22:09:00.420Z,99313.64
2018-12-16T22:11:31.688Z,99315.37
2018-12-16T22:14:02.996Z,99312.54
2018-12-16T22:16:34.169Z,99314.80
2018-12-16T22:19:05.170Z,99316.66
2018-12-16T22:21:36.283Z,99317.17
2018-12-16T22:24:07.380Z,99321.88
2018-12-16T22:26:38.493Z,99325.58
2018-12-16T22:29:09.589Z,99331.50
2018-12-16T22:31:40.713Z,99330.19
2018-12-16T22:34:11.803Z,99331.06
2018-12-16T22:36:42.916Z,99332.86
2018-12-16T22:39:14.017Z,99341.33
2018-12-16T22:41:45.005Z,99335.66
2018-12-16T22:44:16.115Z,99339.45
2018-12-16T22:46:47.342Z,99343.30
2018-12-16T22:49:18.446Z,99343.88
2018-12-16T22:51:49.591Z,99338.48
2018-12-16T22:54:20.592Z,99341.58
2018-12-16T22:56:51.741Z,99342.07
2018-12-16T22:59:22.882Z,99343.93
2018-12-16T23:01:54.010Z,99338.39
2018-12-16T23:04:25.169Z,99346.50
2018-12-16T23:06:56.318Z,99349.16
2018-12-16T23:09:27.420Z,99345.98
2018-12-16T23:11:58.576Z,99341.03
2018-12-16T23:14:29.693Z,99336.58
2018-12-16T23:17:00.827Z,99344.66
2018-12-16T23:19:31.988Z,99342.34
2018-12-16T23:22:09.574Z,99341.75
2018-12-16T23:24:41.256Z,99349.48
2018-12-16T23:27:12.469Z,99348.22
2018-12-16T23:29:43.569Z,99352.41
2018-12-16T23:32:14.681Z,99348.55
2018-12-16T23:34:45.759Z,99349.48
2018-12-16T23:37:16.825Z,99352.52
2018-12-16T23:39:47.920Z,99350.05
2018-12-16T23:42:19.041Z,99352.89
2018-12-16T23:44:50.122Z,99352.09
2018-12-16T23:47:21.228Z,99354.37
2018-12-16T23:49:52.406Z,99360.47
2018-12-16T23:52:23.644Z,99364.90
2018-12-16T23:54:54.784Z,99360.63
2018-12-16T23:57:25.839Z,99357.38
2018-12-16T23:59:57.199Z,99356.68
